sensor_id;sensor_type;location;lat;lon;timestamp;pressure;altitude;pressure_sealevel;temperature;humidity
11682;BME280;5897;42.640;23.310;2024-01-10T00:02:14;94890.19;;;-1.78;76.00
11682;BME280;5897;42.640;23.310;2024-01-10T00:04:42;94859.03;;;-1.93;77.71
11682;BME280;5897;42.640;23.310;2024-01-10T00:07:09;94877.72;;;-2.10;76.18
11682;BME280;5897;42.640;23.310;2024-01-10T00:09:35;94888.09;;;-2.05;80.03
11682;BME280;5897;42.640;23.310;2024-01-10T00:12:02;94882.59;;;-2.00;81.70
11682;BME280;5897;42.640;23.310;2024-01-10T00:14:29;94891.00;;;-1.98;80.20
11682;BME280;5897;42.640;23.310;2024-01-10T00:16:56;94888.25;;;-2.01;78.90
11682;BME280;5897;42.640;23.310;2024-01-10T00:19:22;94884.22;;;-1.87;78.43
11682;BME280;5897;42.640;23.310;2024-01-10T00:21:50;94878.47;;;-2.09;78.40
11682;BME280;5897;42.640;23.310;2024-01-10T00:24:17;94900.09;;;-1.87;77.58
11682;BME280;5897;42.640;23.310;2024-01-10T00:26:43;94889.78;;;-2.00;79.48
11682;BME280;5897;42.640;23.310;2024-01-10T00:29:11;94896.03;;;-2.05;79.18
11682;BME280;5897;42.640;23.310;2024-01-10T00:31:37;94897.97;;;-1.93;80.18
11682;BME280;5897;42.640;23.310;2024-01-10T00:34:04;94808.72;;;-2.46;78.07
11682;BME280;5897;42.640;23.310;2024-01-10T00:36:31;94902.41;;;-1.85;77.18
11682;BME280;5897;42.640;23.310;2024-01-10T00:38:59;94901.72;;;-1.94;76.38
11682;BME280;5897;42.640;23.310;2024-01-10T00:41:25;94894.09;;;-1.96;76.61
11682;BME280;5897;42.640;23.310;2024-01-10T00:43:52;94878.47;;;-2.09;77.32
11682;BME280;5897;42.640;23.310;2024-01-10T00:46:19;94903.59;;;-1.95;78.02
11682;BME280;5897;42.640;23.310;2024-01-10T00:48:45;94907.25;;;-1.87;77.11
11682;BME280;5897;42.640;23.310;2024-01-10T00:51:12;94902.09;;;-1.84;79.13
11682;BME280;5897;42.640;23.310;2024-01-10T00:53:39;94905.22;;;-1.82;79.95
11682;BME280;5897;42.640;23.310;2024-01-10T00:56:07;94906.75;;;-1.81;78.57
11682;BME280;5897;42.640;23.310;2024-01-10T00:58:35;94897.47;;;-1.87;77.90
11682;BME280;5897;42.640;23.310;2024-01-10T01:01:01;94902.63;;;-1.90;77.55
11682;BME280;5897;42.640;23.310;2024-01-10T01:03:28;94907.47;;;-1.92;78.62
11682;BME280;5897;42.640;23.310;2024-01-10T01:05:55;94905.06;;;-1.85;77.95
11682;BME280;5897;42.640;23.310;2024-01-10T01:08:21;94900.19;;;-1.95;77.87
11682;BME280;5897;42.640;23.310;2024-01-10T01:10:48;94900.63;;;-1.93;76.23
11682;BME280;5897;42.640;23.310;2024-01-10T01:13:16;94878.84;;;-2.19;75.80
11682;BME280;5897;42.640;23.310;2024-01-10T01:15:43;94888.31;;;-2.10;79.20
11682;BME280;5897;42.640;23.310;2024-01-10T01:18:10;94861.94;;;-2.47;78.88
11682;BME280;5897;42.640;23.310;2024-01-10T01:20:38;94892.63;;;-2.26;79.99
11682;BME280;5897;42.640;23.310;2024-01-10T01:23:04;94889.59;;;-2.16;79.29
11682;BME280;5897;42.640;23.310;2024-01-10T01:25:31;94894.34;;;-2.09;79.73
11682;BME280;5897;42.640;23.310;2024-01-10T01:27:57;94844.59;;;-2.36;79.14
11682;BME280;5897;42.640;23.310;2024-01-10T01:30:25;94890.88;;;-2.01;76.41
11682;BME280;5897;42.640;23.310;2024-01-10T01:32:52;94887.97;;;-2.08;80.44
11682;BME280;5897;42.640;23.310;2024-01-10T01:35:19;94881.50;;;-2.19;79.55
11682;BME280;5897;42.640;23.310;2024-01-10T01:37:47;94875.88;;;-2.38;78.28
11682;BME280;5897;42.640;23.310;2024-01-10T01:40:13;94886.22;;;-2.45;78.00
11682;BME280;5897;42.640;23.310;2024-01-10T01:42:40;94883.63;;;-2.54;77.70
11682;BME280;5897;42.640;23.310;2024-01-10T01:45:07;94873.53;;;-2.60;78.54
11682;BME280;5897;42.640;23.310;2024-01-10T01:47:35;94889.66;;;-2.53;80.92
11682;BME280;5897;42.640;23.310;2024-01-10T01:50:02;94850.47;;;-2.51;81.24
11682;BME280;5897;42.640;23.310;2024-01-10T01:52:29;94872.69;;;-2.23;82.93
11682;BME280;5897;42.640;23.310;2024-01-10T01:54:55;94840.25;;;-2.41;81.66
11682;BME280;5897;42.640;23.310;2024-01-10T01:57:22;94874.34;;;-2.19;80.40
11682;BME280;5897;42.640;23.310;2024-01-10T01:59:50;94869.06;;;-2.19;80.25
11682;BME280;5897;42.640;23.310;2024-01-10T02:02:17;94868.53;;;-2.12;80.01
11682;BME280;5897;42.640;23.310;2024-01-10T02:04:46;94867.38;;;-2.23;80.31
11682;BME280;5897;42.640;23.310;2024-01-10T02:07:13;94853.38;;;-2.24;80.55
11682;BME280;5897;42.640;23.310;2024-01-10T02:09:40;94858.16;;;-2.17;80.38
11682;BME280;5897;42.640;23.310;2024-01-10T02:12:06;94861.25;;;-2.15;80.08
11682;BME280;5897;42.640;23.310;2024-01-10T02:14:33;94853.25;;;-2.27;80.61
11682;BME280;5897;42.640;23.310;2024-01-10T02:17:00;94854.28;;;-2.20;79.47
11682;BME280;5897;42.640;23.310;2024-01-10T02:19:27;94859.69;;;-2.16;80.07
11682;BME280;5897;42.640;23.310;2024-01-10T02:21:55;94855.63;;;-2.14;79.16
11682;BME280;5897;42.640;23.310;2024-01-10T02:24:22;94866.22;;;-2.14;78.33
11682;BME280;5897;42.640;23.310;2024-01-10T02:26:50;94868.50;;;-2.24;78.46
11682;BME280;5897;42.640;23.310;2024-01-10T02:29:17;94833.56;;;-2.38;80.94
11682;BME280;5897;42.640;23.310;2024-01-10T02:31:44;94857.19;;;-2.33;80.51
11682;BME280;5897;42.640;23.310;2024-01-10T02:34:11;94842.59;;;-2.39;79.75
11682;BME280;5897;42.640;23.310;2024-01-10T02:36:37;94855.50;;;-2.38;79.66
11682;BME280;5897;42.640;23.310;2024-01-10T02:39:04;94860.13;;;-2.35;79.04
11682;BME280;5897;42.640;23.310;2024-01-10T02:41:31;94858.78;;;-2.41;78.88
11682;BME280;5897;42.640;23.310;2024-01-10T02:43:59;94840.31;;;-2.49;80.59
11682;BME280;5897;42.640;23.310;2024-01-10T02:46:25;94865.13;;;-2.33;78.82
11682;BME280;5897;42.640;23.310;2024-01-10T02:48:54;94861.50;;;-2.49;78.83
11682;BME280;5897;42.640;23.310;2024-01-10T02:51:21;94854.28;;;-2.61;76.42
11682;BME280;5897;42.640;23.310;2024-01-10T02:53:48;94861.34;;;-2.73;76.31
11682;BME280;5897;42.640;23.310;2024-01-10T02:56:14;94857.19;;;-2.83;77.13
11682;BME280;5897;42.640;23.310;2024-01-10T02:58:41;94855.19;;;-2.86;78.65
11682;BME280;5897;42.640;23.310;2024-01-10T03:01:09;94866.94;;;-2.75;79.46
11682;BME280;5897;42.640;23.310;2024-01-10T03:03:36;94853.31;;;-2.85;79.25
11682;BME280;5897;42.640;23.310;2024-01-10T03:06:03;94865.34;;;-2.67;79.18
11682;BME280;5897;42.640;23.310;2024-01-10T03:08:29;94851.38;;;-2.76;77.57
11682;BME280;5897;42.640;23.310;2024-01-10T03:10:56;94841.13;;;-2.98;77.36
11682;BME280;5897;42.640;23.310;2024-01-10T03:13:23;94868.88;;;-2.84;76.49
11682;BME280;5897;42.640;23.310;2024-01-10T03:15:49;94863.81;;;-2.97;76.88
11682;BME280;5897;42.640;23.310;2024-01-10T03:18:18;94867.13;;;-3.09;77.58
11682;BME280;5897;42.640;23.310;2024-01-10T03:20:44;94872.53;;;-3.05;78.11
11682;BME280;5897;42.640;23.310;2024-01-10T03:23:11;94867.56;;;-2.98;78.37
11682;BME280;5897;42.640;23.310;2024-01-10T03:25:38;94823.41;;;-3.06;78.58
11682;BME280;5897;42.640;23.310;2024-01-10T03:28:05;94870.19;;;-2.69;78.60
11682;BME280;5897;42.640;23.310;2024-01-10T03:30:31;94840.38;;;-2.78;79.09
11682;BME280;5897;42.640;23.310;2024-01-10T03:32:58;94876.91;;;-2.51;79.07
11682;BME280;5897;42.640;23.310;2024-01-10T03:35:26;94867.56;;;-2.49;78.96
11682;BME280;5897;42.640;23.310;2024-01-10T03:37:52;94869.06;;;-2.39;78.70
11682;BME280;5897;42.640;23.310;2024-01-10T03:40:20;94875.56;;;-2.37;78.53
11682;BME280;5897;42.640;23.310;2024-01-10T03:42:47;94869.31;;;-2.32;77.90
11682;BME280;5897;42.640;23.310;2024-01-10T03:45:13;94866.22;;;-2.34;77.65
11682;BME280;5897;42.640;23.310;2024-01-10T03:47:42;94872.47;;;-2.39;77.77
11682;BME280;5897;42.640;23.310;2024-01-10T03:50:09;94863.38;;;-2.29;78.26
11682;BME280;5897;42.640;23.310;2024-01-10T03:52:37;94855.22;;;-2.45;78.85
11682;BME280;5897;42.640;23.310;2024-01-10T03:55:04;94862.47;;;-2.33;78.52
11682;BME280;5897;42.640;23.310;2024-01-10T03:57:30;94870.09;;;-2.52;78.02
11682;BME280;5897;42.640;23.310;2024-01-10T03:59:57;94860.50;;;-2.65;77.63
11682;BME280;5897;42.640;23.310;2024-01-10T04:02:24;94872.78;;;-2.61;77.59
11682;BME280;5897;42.640;23.310;2024-01-10T04:04:51;94873.16;;;-2.71;77.01
11682;BME280;5897;42.640;23.310;2024-01-10T04:07:17;94880.22;;;-2.83;77.68
11682;BME280;5897;42.640;23.310;2024-01-10T04:09:45;94875.19;;;-2.76;79.47
11682;BME280;5897;42.640;23.310;2024-01-10T04:12:12;94885.59;;;-2.71;80.51
11682;BME280;5897;42.640;23.310;2024-01-10T04:14:38;94886.31;;;-2.62;81.29
11682;BME280;5897;42.640;23.310;2024-01-10T04:17:05;94882.09;;;-2.55;81.28
11682;BME280;5897;42.640;23.310;2024-01-10T04:19:32;94842.50;;;-2.72;78.75
11682;BME280;5897;42.640;23.310;2024-01-10T04:21:59;94886.03;;;-2.40;77.64
11682;BME280;5897;42.640;23.310;2024-01-10T04:24:25;94880.44;;;-2.47;78.46
11682;BME280;5897;42.640;23.310;2024-01-10T04:26:53;94892.69;;;-2.34;77.00
11682;BME280;5897;42.640;23.310;2024-01-10T04:29:20;94895.31;;;-2.34;76.04
11682;BME280;5897;42.640;23.310;2024-01-10T04:31:47;94895.94;;;-2.37;76.43
11682;BME280;5897;42.640;23.310;2024-01-10T04:34:14;94887.75;;;-2.44;76.08
11682;BME280;5897;42.640;23.310;2024-01-10T04:36:40;94881.09;;;-2.50;74.69
11682;BME280;5897;42.640;23.310;2024-01-10T04:39:07;94910.88;;;-2.33;75.46
11682;BME280;5897;42.640;23.310;2024-01-10T04:41:34;94905.72;;;-2.29;73.12
11682;BME280;5897;42.640;23.310;2024-01-10T04:44:02;94911.66;;;-2.32;71.88
11682;BME280;5897;42.640;23.310;2024-01-10T04:46:28;94911.25;;;-2.43;74.46
11682;BME280;5897;42.640;23.310;2024-01-10T04:48:55;94919.94;;;-2.42;75.00
11682;BME280;5897;42.640;23.310;2024-01-10T04:51:22;94922.16;;;-2.44;76.66
11682;BME280;5897;42.640;23.310;2024-01-10T04:53:48;94916.19;;;-2.33;76.73
11682;BME280;5897;42.640;23.310;2024-01-10T04:56:15;94912.50;;;-2.40;75.85
11682;BME280;5897;42.640;23.310;2024-01-10T04:58:42;94929.25;;;-2.36;75.27
11682;BME280;5897;42.640;23.310;2024-01-10T05:01:10;94898.97;;;-2.47;74.45
11682;BME280;5897;42.640;23.310;2024-01-10T05:03:36;94922.03;;;-2.27;74.20
11682;BME280;5897;42.640;23.310;2024-01-10T05:06:03;94918.13;;;-2.21;75.87
11682;BME280;5897;42.640;23.310;2024-01-10T05:08:30;94885.28;;;-2.49;74.19
11682;BME280;5897;42.640;23.310;2024-01-10T05:10:57;94912.66;;;-2.45;73.25
11682;BME280;5897;42.640;23.310;2024-01-10T05:13:24;94919.13;;;-2.34;71.54
11682;BME280;5897;42.640;23.310;2024-01-10T05:15:50;94897.81;;;-2.58;72.03
11682;BME280;5897;42.640;23.310;2024-01-10T05:18:18;94936.00;;;-2.47;70.70
11682;BME280;5897;42.640;23.310;2024-01-10T05:20:45;94916.81;;;-2.94;71.77
11682;BME280;5897;42.640;23.310;2024-01-10T05:23:12;94929.25;;;-2.65;72.51
11682;BME280;5897;42.640;23.310;2024-01-10T05:25:38;94930.31;;;-2.58;72.77
11682;BME280;5897;42.640;23.310;2024-01-10T05:28:06;94930.31;;;-2.58;74.95
11682;BME280;5897;42.640;23.310;2024-01-10T05:30:32;94927.97;;;-2.59;73.71
11682;BME280;5897;42.640;23.310;2024-01-10T05:32:59;94925.44;;;-2.76;71.20
11682;BME280;5897;42.640;23.310;2024-01-10T05:35:27;94945.59;;;-2.63;70.80
11682;BME280;5897;42.640;23.310;2024-01-10T05:37:54;94945.00;;;-2.69;70.11
11682;BME280;5897;42.640;23.310;2024-01-10T05:40:21;94928.31;;;-2.90;70.05
11682;BME280;5897;42.640;23.310;2024-01-10T05:42:48;94937.97;;;-2.94;71.31
11682;BME280;5897;42.640;23.310;2024-01-10T05:45:15;94951.72;;;-2.80;71.51
11682;BME280;5897;42.640;23.310;2024-01-10T05:47:43;94942.13;;;-2.84;72.45
11682;BME280;5897;42.640;23.310;2024-01-10T05:50:10;94910.91;;;-2.99;72.55
11682;BME280;5897;42.640;23.310;2024-01-10T05:52:38;94952.97;;;-2.77;72.99
11682;BME280;5897;42.640;23.310;2024-01-10T05:55:06;94947.09;;;-2.83;71.91
11682;BME280;5897;42.640;23.310;2024-01-10T05:57:34;94943.38;;;-2.90;72.11
11682;BME280;5897;42.640;23.310;2024-01-10T06:00:00;94953.03;;;-2.94;72.57
11682;BME280;5897;42.640;23.310;2024-01-10T06:02:28;94949.78;;;-2.91;72.72
11682;BME280;5897;42.640;23.310;2024-01-10T06:04:55;94954.22;;;-2.83;79.41
11682;BME280;5897;42.640;23.310;2024-01-10T06:07:21;94952.78;;;-2.72;81.65
11682;BME280;5897;42.640;23.310;2024-01-10T06:09:50;94956.97;;;-2.71;78.82
11682;BME280;5897;42.640;23.310;2024-01-10T06:12:16;94892.88;;;-2.97;74.31
11682;BME280;5897;42.640;23.310;2024-01-10T06:14:43;94847.88;;;-3.55;74.33
11682;BME280;5897;42.640;23.310;2024-01-10T06:17:10;94939.78;;;-2.86;76.64
11682;BME280;5897;42.640;23.310;2024-01-10T06:19:36;94934.34;;;-2.89;76.59
11682;BME280;5897;42.640;23.310;2024-01-10T06:22:04;94960.41;;;-2.71;77.54
11682;BME280;5897;42.640;23.310;2024-01-10T06:24:31;94961.91;;;-2.61;77.11
11682;BME280;5897;42.640;23.310;2024-01-10T06:26:59;94962.88;;;-2.66;77.90
11682;BME280;5897;42.640;23.310;2024-01-10T06:29:26;94975.75;;;-2.56;77.78
11682;BME280;5897;42.640;23.310;2024-01-10T06:31:52;94941.59;;;-2.69;76.70
11682;BME280;5897;42.640;23.310;2024-01-10T06:34:21;94974.88;;;-2.39;78.47
11682;BME280;5897;42.640;23.310;2024-01-10T06:36:48;94977.78;;;-2.03;80.56
11682;BME280;5897;42.640;23.310;2024-01-10T06:39:15;94973.59;;;-2.04;77.08
11682;BME280;5897;42.640;23.310;2024-01-10T06:41:45;94974.56;;;-2.09;75.59
11682;BME280;5897;42.640;23.310;2024-01-10T06:44:13;94988.09;;;-2.10;73.90
11682;BME280;5897;42.640;23.310;2024-01-10T06:46:40;94991.00;;;-2.03;73.89
11682;BME280;5897;42.640;23.310;2024-01-10T06:49:07;94995.72;;;-2.09;71.83
11682;BME280;5897;42.640;23.310;2024-01-10T06:51:33;95002.19;;;-2.18;71.42
11682;BME280;5897;42.640;23.310;2024-01-10T06:54:00;94994.81;;;-2.13;71.70
11682;BME280;5897;42.640;23.310;2024-01-10T06:56:28;95000.59;;;-2.19;71.24
11682;BME280;5897;42.640;23.310;2024-01-10T06:58:55;94933.97;;;-2.71;72.07
11682;BME280;5897;42.640;23.310;2024-01-10T07:01:23;94988.69;;;-2.34;71.30
11682;BME280;5897;42.640;23.310;2024-01-10T07:03:50;94968.06;;;-2.40;72.97
11682;BME280;5897;42.640;23.310;2024-01-10T07:06:17;94976.88;;;-2.36;71.93
11682;BME280;5897;42.640;23.310;2024-01-10T07:08:44;95000.03;;;-2.25;70.52
11682;BME280;5897;42.640;23.310;2024-01-10T07:11:11;95011.00;;;-2.14;70.87
11682;BME280;5897;42.640;23.310;2024-01-10T07:13:38;95009.66;;;-2.20;70.45
11682;BME280;5897;42.640;23.310;2024-01-10T07:16:05;95007.75;;;-2.11;68.38
11682;BME280;5897;42.640;23.310;2024-01-10T07:18:33;95010.38;;;-2.11;69.20
11682;BME280;5897;42.640;23.310;2024-01-10T07:21:00;95001.97;;;-2.13;69.61
11682;BME280;5897;42.640;23.310;2024-01-10T07:23:26;95019.78;;;-1.93;68.65
11682;BME280;5897;42.640;23.310;2024-01-10T07:25:53;95015.09;;;-1.96;68.41
11682;BME280;5897;42.640;23.310;2024-01-10T07:28:20;94990.94;;;-2.15;70.02
11682;BME280;5897;42.640;23.310;2024-01-10T07:30:47;95024.94;;;-1.97;68.35
11682;BME280;5897;42.640;23.310;2024-01-10T07:33:14;95024.16;;;-1.97;70.91
11682;BME280;5897;42.640;23.310;2024-01-10T07:35:42;95027.59;;;-1.76;69.62
11682;BME280;5897;42.640;23.310;2024-01-10T07:38:09;95022.75;;;-1.74;69.78
11682;BME280;5897;42.640;23.310;2024-01-10T07:40:36;95015.28;;;-1.72;68.89
11682;BME280;5897;42.640;23.310;2024-01-10T07:43:04;95006.16;;;-1.83;66.93
11682;BME280;5897;42.640;23.310;2024-01-10T07:45:30;95037.94;;;-1.63;66.71
11682;BME280;5897;42.640;23.310;2024-01-10T07:47:58;95037.94;;;-1.42;64.99
11682;BME280;5897;42.640;23.310;2024-01-10T07:50:25;95035.81;;;-1.69;64.99
11682;BME280;5897;42.640;23.310;2024-01-10T07:52:54;95030.69;;;-1.54;64.88
11682;BME280;5897;42.640;23.310;2024-01-10T07:55:21;95027.97;;;-1.45;64.49
11682;BME280;5897;42.640;23.310;2024-01-10T07:57:48;95039.75;;;-1.34;62.81
11682;BME280;5897;42.640;23.310;2024-01-10T08:00:16;94950.78;;;-1.56;64.32
11682;BME280;5897;42.640;23.310;2024-01-10T08:02:45;95037.88;;;-0.69;61.60
11682;BME280;5897;42.640;23.310;2024-01-10T08:05:12;95030.63;;;-0.60;60.43
11682;BME280;5897;42.640;23.310;2024-01-10T08:07:39;95037.38;;;-0.38;60.15
11682;BME280;5897;42.640;23.310;2024-01-10T08:10:07;95041.47;;;-0.29;58.04
11682;BME280;5897;42.640;23.310;2024-01-10T08:12:34;95043.28;;;-0.09;57.06
11682;BME280;5897;42.640;23.310;2024-01-10T08:15:01;95039.50;;;0.04;56.57
11682;BME280;5897;42.640;23.310;2024-01-10T08:17:28;95047.59;;;0.31;55.30
11682;BME280;5897;42.640;23.310;2024-01-10T08:19:56;95055.38;;;0.64;55.41
11682;BME280;5897;42.640;23.310;2024-01-10T08:22:23;95052.84;;;0.95;57.69
11682;BME280;5897;42.640;23.310;2024-01-10T08:24:49;95021.31;;;1.09;67.71
11682;BME280;5897;42.640;23.310;2024-01-10T08:27:17;95044.88;;;1.22;50.96
11682;BME280;5897;42.640;23.310;2024-01-10T08:29:44;95057.69;;;1.05;51.29
11682;BME280;5897;42.640;23.310;2024-01-10T08:32:11;95051.56;;;1.04;52.44
11682;BME280;5897;42.640;23.310;2024-01-10T08:34:38;95051.88;;;1.15;52.66
11682;BME280;5897;42.640;23.310;2024-01-10T08:37:04;95047.00;;;1.32;52.73
11682;BME280;5897;42.640;23.310;2024-01-10T08:39:31;95046.94;;;1.44;51.59
11682;BME280;5897;42.640;23.310;2024-01-10T08:41:58;95046.63;;;1.46;50.90
11682;BME280;5897;42.640;23.310;2024-01-10T08:44:26;95028.44;;;1.20;52.26
11682;BME280;5897;42.640;23.310;2024-01-10T08:46:52;94992.47;;;1.11;53.58
11682;BME280;5897;42.640;23.310;2024-01-10T08:49:19;95048.44;;;1.73;53.36
11682;BME280;5897;42.640;23.310;2024-01-10T08:51:46;95053.09;;;1.91;53.03
11682;BME280;5897;42.640;23.310;2024-01-10T08:54:12;95056.63;;;2.11;53.02
11682;BME280;5897;42.640;23.310;2024-01-10T08:56:42;95043.28;;;2.26;53.44
11682;BME280;5897;42.640;23.310;2024-01-10T08:59:10;95017.91;;;2.01;51.62
11682;BME280;5897;42.640;23.310;2024-01-10T09:01:38;95037.06;;;2.22;55.07
11682;BME280;5897;42.640;23.310;2024-01-10T09:04:05;95025.28;;;2.39;56.30
11682;BME280;5897;42.640;23.310;2024-01-10T09:06:32;95024.41;;;2.69;56.28
11682;BME280;5897;42.640;23.310;2024-01-10T09:08:58;95058.13;;;2.77;56.36
11682;BME280;5897;42.640;23.310;2024-01-10T09:11:25;95046.31;;;2.97;55.95
11682;BME280;5897;42.640;23.310;2024-01-10T09:13:52;95018.81;;;2.93;55.73
11682;BME280;5897;42.640;23.310;2024-01-10T09:16:18;95035.94;;;2.92;53.85
11682;BME280;5897;42.640;23.310;2024-01-10T09:18:46;95035.59;;;3.13;54.89
11682;BME280;5897;42.640;23.310;2024-01-10T09:21:15;95022.97;;;3.32;55.86
11682;BME280;5897;42.640;23.310;2024-01-10T09:23:45;95034.41;;;3.52;53.44
11682;BME280;5897;42.640;23.310;2024-01-10T09:26:13;95027.06;;;3.45;53.32
11682;BME280;5897;42.640;23.310;2024-01-10T09:28:39;95037.19;;;3.36;53.30
11682;BME280;5897;42.640;23.310;2024-01-10T09:31:06;95032.16;;;3.54;53.08
11682;BME280;5897;42.640;23.310;2024-01-10T09:33:33;95027.56;;;3.73;52.78
11682;BME280;5897;42.640;23.310;2024-01-10T09:36:02;94996.91;;;3.67;52.09
11682;BME280;5897;42.640;23.310;2024-01-10T09:38:29;95034.91;;;4.02;52.24
11682;BME280;5897;42.640;23.310;2024-01-10T09:40:59;95033.19;;;4.13;50.75
11682;BME280;5897;42.640;23.310;2024-01-10T09:43:30;95025.09;;;4.10;51.14
11682;BME280;5897;42.640;23.310;2024-01-10T09:45:58;95033.59;;;4.15;49.55
11682;BME280;5897;42.640;23.310;2024-01-10T09:48:25;95031.75;;;4.19;47.89
11682;BME280;5897;42.640;23.310;2024-01-10T09:50:52;95027.94;;;4.20;48.47
11682;BME280;5897;42.640;23.310;2024-01-10T09:53:22;95028.25;;;4.41;47.73
11682;BME280;5897;42.640;23.310;2024-01-10T09:55:49;95027.84;;;4.39;48.57
11682;BME280;5897;42.640;23.310;2024-01-10T09:58:16;95027.28;;;4.53;47.35
11682;BME280;5897;42.640;23.310;2024-01-10T10:00:43;95022.28;;;4.51;46.56
11682;BME280;5897;42.640;23.310;2024-01-10T10:03:11;95005.50;;;4.54;46.72
11682;BME280;5897;42.640;23.310;2024-01-10T10:05:38;94989.91;;;4.60;45.28
11682;BME280;5897;42.640;23.310;2024-01-10T10:08:07;95005.31;;;4.70;45.90
11682;BME280;5897;42.640;23.310;2024-01-10T10:10:37;94988.00;;;4.60;45.19
11682;BME280;5897;42.640;23.310;2024-01-10T10:13:09;94998.13;;;4.74;47.04
11682;BME280;5897;42.640;23.310;2024-01-10T10:15:37;94994.97;;;4.68;45.59
11682;BME280;5897;42.640;23.310;2024-01-10T10:18:04;94995.84;;;4.76;48.01
11682;BME280;5897;42.640;23.310;2024-01-10T10:20:31;94984.72;;;5.03;47.06
11682;BME280;5897;42.640;23.310;2024-01-10T10:22:59;94968.91;;;5.28;47.35
11682;BME280;5897;42.640;23.310;2024-01-10T10:25:27;94962.97;;;5.45;46.63
11682;BME280;5897;42.640;23.310;2024-01-10T10:27:56;94962.22;;;5.88;45.38
11682;BME280;5897;42.640;23.310;2024-01-10T10:30:23;94959.97;;;5.93;45.69
11682;BME280;5897;42.640;23.310;2024-01-10T10:32:50;94945.81;;;5.96;44.35
11682;BME280;5897;42.640;23.310;2024-01-10T10:35:18;94949.47;;;6.28;44.23
11682;BME280;5897;42.640;23.310;2024-01-10T10:37:45;94942.97;;;6.26;43.35
11682;BME280;5897;42.640;23.310;2024-01-10T10:40:12;94947.72;;;6.50;43.40
11682;BME280;5897;42.640;23.310;2024-01-10T10:42:38;94946.25;;;6.66;43.61
11682;BME280;5897;42.640;23.310;2024-01-10T10:45:09;94931.81;;;7.02;42.04
11682;BME280;5897;42.640;23.310;2024-01-10T10:47:41;94931.50;;;7.14;40.96
11682;BME280;5897;42.640;23.310;2024-01-10T10:50:12;94931.94;;;7.48;40.58
11682;BME280;5897;42.640;23.310;2024-01-10T10:52:42;94928.13;;;7.66;40.16
11682;BME280;5897;42.640;23.310;2024-01-10T10:55:14;94923.50;;;7.98;39.21
11682;BME280;5897;42.640;23.310;2024-01-10T10:57:41;94915.84;;;8.28;38.71
11682;BME280;5897;42.640;23.310;2024-01-10T11:00:12;94923.53;;;8.09;38.42
11682;BME280;5897;42.640;23.310;2024-01-10T11:02:41;94918.88;;;8.37;38.68
11682;BME280;5897;42.640;23.310;2024-01-10T11:05:09;94901.09;;;8.71;38.19
11682;BME280;5897;42.640;23.310;2024-01-10T11:07:35;94920.16;;;9.15;36.82
11682;BME280;5897;42.640;23.310;2024-01-10T11:10:05;94902.34;;;9.32;36.81
11682;BME280;5897;42.640;23.310;2024-01-10T11:12:47;94899.75;;;9.72;35.39
11682;BME280;5897;42.640;23.310;2024-01-10T11:15:38;94894.41;;;9.69;36.46
11682;BME280;5897;42.640;23.310;2024-01-10T11:18:21;94885.25;;;10.00;35.16
11682;BME280;5897;42.640;23.310;2024-01-10T11:21:06;94894.72;;;10.62;34.64
11682;BME280;5897;42.640;23.310;2024-01-10T11:23:41;94883.41;;;10.37;34.32
11682;BME280;5897;42.640;23.310;2024-01-10T11:26:10;94890.50;;;10.61;34.06
11682;BME280;5897;42.640;23.310;2024-01-10T11:28:38;94873.47;;;10.64;33.63
11682;BME280;5897;42.640;23.310;2024-01-10T11:31:08;94858.22;;;10.47;33.64
11682;BME280;5897;42.640;23.310;2024-01-10T11:33:36;94872.63;;;11.01;33.11
11682;BME280;5897;42.640;23.310;2024-01-10T11:36:11;94872.16;;;11.09;32.26
11682;BME280;5897;42.640;23.310;2024-01-10T11:38:42;94868.16;;;11.17;32.62
11682;BME280;5897;42.640;23.310;2024-01-10T11:41:16;94855.81;;;11.43;33.57
11682;BME280;5897;42.640;23.310;2024-01-10T11:43:46;94862.16;;;11.86;31.47
11682;BME280;5897;42.640;23.310;2024-01-10T11:46:14;94860.09;;;11.93;31.15
11682;BME280;5897;42.640;23.310;2024-01-10T11:48:43;94780.34;;;11.25;31.81
11682;BME280;5897;42.640;23.310;2024-01-10T11:51:10;94848.53;;;11.40;32.75
11682;BME280;5897;42.640;23.310;2024-01-10T11:53:41;94847.75;;;11.69;31.83
11682;BME280;5897;42.640;23.310;2024-01-10T11:56:12;94850.25;;;11.80;32.00
11682;BME280;5897;42.640;23.310;2024-01-10T11:59:01;94821.00;;;11.71;30.97
11682;BME280;5897;42.640;23.310;2024-01-10T12:01:31;94821.31;;;11.50;31.81
11682;BME280;5897;42.640;23.310;2024-01-10T12:03:58;94833.25;;;11.79;31.79
11682;BME280;5897;42.640;23.310;2024-01-10T12:06:25;94832.31;;;11.89;30.54
11682;BME280;5897;42.640;23.310;2024-01-10T12:09:06;94770.06;;;11.66;29.60
11682;BME280;5897;42.640;23.310;2024-01-10T12:11:34;94763.31;;;11.51;30.65
11682;BME280;5897;42.640;23.310;2024-01-10T12:14:01;94793.31;;;11.11;30.77
11682;BME280;5897;42.640;23.310;2024-01-10T12:16:28;94823.25;;;11.23;31.54
11682;BME280;5897;42.640;23.310;2024-01-10T12:18:56;94825.88;;;11.30;31.62
11682;BME280;5897;42.640;23.310;2024-01-10T12:21:23;94821.19;;;11.61;31.33
11682;BME280;5897;42.640;23.310;2024-01-10T12:23:50;94810.88;;;11.52;30.86
11682;BME280;5897;42.640;23.310;2024-01-10T12:26:17;94813.94;;;11.77;31.47
11682;BME280;5897;42.640;23.310;2024-01-10T12:28:53;94819.69;;;12.25;30.73
11682;BME280;5897;42.640;23.310;2024-01-10T12:31:20;94819.06;;;12.76;30.04
11682;BME280;5897;42.640;23.310;2024-01-10T12:33:48;94803.84;;;12.82;29.89
11682;BME280;5897;42.640;23.310;2024-01-10T12:36:17;94817.13;;;13.15;29.33
11682;BME280;5897;42.640;23.310;2024-01-10T12:38:45;94799.31;;;12.95;29.24
11682;BME280;5897;42.640;23.310;2024-01-10T12:41:12;94818.88;;;13.06;29.16
11682;BME280;5897;42.640;23.310;2024-01-10T12:43:40;94815.84;;;13.20;28.50
11682;BME280;5897;42.640;23.310;2024-01-10T12:46:07;94813.81;;;13.24;28.81
11682;BME280;5897;42.640;23.310;2024-01-10T12:48:36;94816.09;;;13.09;28.63
11682;BME280;5897;42.640;23.310;2024-01-10T12:51:04;94805.31;;;13.06;28.33
11682;BME280;5897;42.640;23.310;2024-01-10T12:53:34;94827.72;;;12.71;29.48
11682;BME280;5897;42.640;23.310;2024-01-10T12:56:01;94826.31;;;12.63;28.41
11682;BME280;5897;42.640;23.310;2024-01-10T12:58:28;94820.00;;;12.69;28.16
11682;BME280;5897;42.640;23.310;2024-01-10T13:00:56;94822.91;;;12.78;28.40
11682;BME280;5897;42.640;23.310;2024-01-10T13:03:22;94821.84;;;12.92;28.39
11682;BME280;5897;42.640;23.310;2024-01-10T13:05:49;94823.38;;;12.73;27.83